Home > Products > Valid Products > TAF

000
FTUS45 KLKN 231700
TAFELY
TAF
KELY 231720Z 2318/2418 32010G20KT P6SM SCT050 SCT250
     FM240400 17006KT P6SM SKC=



000
FTUS45 KLKN 231700
TAFWMC
TAF
KWMC 231720Z 2318/2418 33010KT P6SM SCT060 SCT250
     FM240300 VRB05KT P6SM SKC=



000
FTUS45 KLKN 231700
TAFWMC
TAF
KWMC 231720Z 2318/2418 33010KT P6SM SCT060 SCT250
     FM240300 VRB05KT P6SM SKC=



000
FTUS45 KLKN 231700
TAFELY
TAF
KELY 231720Z 2318/2418 32010G20KT P6SM SCT050 SCT250
     FM240400 17006KT P6SM SKC=



000
FTUS45 KLKN 231700
TAFEKO
TAF
KEKO 231720Z 2318/2418 28010G20KT P6SM SCT060 SCT200
     FM240300 VRB03KT P6SM SKC=



000
FTUS45 KLKN 231700
TAFEKO
TAF
KEKO 231720Z 2318/2418 28010G20KT P6SM SCT060 SCT200
     FM240300 VRB03KT P6SM SKC=



000
FTUS45 KLKN 231700
TAFTPH
TAF
KTPH 231720Z 2318/2418 32010G20KT P6SM SKC
     FM240300 35008KT P6SM SKC=



000
FTUS45 KLKN 231700
TAFTPH
TAF
KTPH 231720Z 2318/2418 32010G20KT P6SM SKC
     FM240300 35008KT P6SM SKC=



000
FTUS45 KLKN 231100
TAFEKO
TAF
KEKO 231120Z 2312/2412 08002KT P6SM SKC
     FM231800 28010G20KT P6SM SCT060 SCT200
     FM240300 VRB02KT P6SM SKC=



000
FTUS45 KLKN 231100
TAFTPH
TAF
KTPH 231120Z 2312/2412 32007KT P6SM SKC
     FM231800 32012G22KT P6SM SKC
     FM240300 36008KT P6SM SKC=



000
FTUS45 KLKN 231100
TAFELY
TAF
KELY 231120Z 2312/2412 30006KT P6SM SCT050
     FM231800 32010G20KT P6SM SCT060 SCT200
     FM240300 VRB05KT P6SM SKC
     FM240600 17006KT P6SM SKC=



000
FTUS45 KLKN 231100
TAFWMC
TAF
KWMC 231120Z 2312/2412 36007KT P6SM SKC
     FM231800 34010G20KT P6SM SCT060 SCT200
     FM240300 36006KT P6SM SKC
     FM240600 04012KT P6SM SKC=



000
FTUS45 KLKN 231100
TAFEKO
TAF
KEKO 231120Z 2312/2412 08002KT P6SM SKC
     FM231800 28010G20KT P6SM SCT060 SCT200
     FM240300 VRB02KT P6SM SKC=



000
FTUS45 KLKN 231100
TAFELY
TAF
KELY 231120Z 2312/2412 30006KT P6SM SCT050
     FM231800 32010G20KT P6SM SCT060 SCT200
     FM240300 VRB05KT P6SM SKC
     FM240600 17006KT P6SM SKC=



000
FTUS45 KLKN 231100
TAFTPH
TAF
KTPH 231120Z 2312/2412 32007KT P6SM SKC
     FM231800 32012G22KT P6SM SKC
     FM240300 36008KT P6SM SKC=



000
FTUS45 KLKN 231100
TAFWMC
TAF
KWMC 231120Z 2312/2412 36007KT P6SM SKC
     FM231800 34010G20KT P6SM SCT060 SCT200
     FM240300 36006KT P6SM SKC
     FM240600 04012KT P6SM SKC=



000
FTUS45 KLKN 230500
TAFEKO
TAF
KEKO 230520Z 2306/2406 VRB05KT P6SM SCT100
     FM232000 27009KT P6SM SKC=



000
FTUS45 KLKN 230500
TAFELY
TAF
KELY 230520Z 2306/2406 20006KT P6SM VCSH OVC090
     FM230900 19008KT P6SM SCT090
     FM232000 31008KT P6SM SKC=



000
FTUS45 KLKN 230500
TAFWMC
TAF
KWMC 230520Z 2306/2406 34009KT P6SM SKC=



000
FTUS45 KLKN 230500
TAFWMC
TAF
KWMC 230520Z 2306/2406 34009KT P6SM SKC=



000
FTUS45 KLKN 230500
TAFEKO
TAF
KEKO 230520Z 2306/2406 VRB05KT P6SM SCT100
     FM232000 27009KT P6SM SKC=



000
FTUS45 KLKN 230500
TAFTPH
TAF
KTPH 230520Z 2306/2406 34012G22KT P6SM BKN090
     FM230800 34008KT P6SM SKC=



000
FTUS45 KLKN 230500
TAFELY
TAF
KELY 230520Z 2306/2406 20006KT P6SM VCSH OVC090
     FM230900 19008KT P6SM SCT090
     FM232000 31008KT P6SM SKC=



000
FTUS45 KLKN 230500
TAFTPH
TAF
KTPH 230520Z 2306/2406 34012G22KT P6SM BKN090
     FM230800 34008KT P6SM SKC=



000
FTUS45 KLKN 230000 AAA
TAFELY
TAF AMD
KELY 230021Z 2300/2324 18009KT P6SM VCTS BKN080CB OVC100
      TEMPO 2300/2303 VRB15G40KT 3SM -TSRA SCT030CB BKN050
     FM230300 19010KT P6SM VCTS OVC070CB
     FM230500 20009KT P6SM VCSH OVC090
     FM230900 19008KT P6SM SCT090
     FM232000 31008KT P6SM SKC=



000
FTUS45 KLKN 230000 AAA
TAFELY
TAF AMD
KELY 230021Z 2300/2324 18009KT P6SM VCTS BKN080CB OVC100
      TEMPO 2300/2303 VRB15G40KT 3SM -TSRA SCT030CB BKN050
     FM230300 19010KT P6SM VCTS OVC070CB
     FM230500 20009KT P6SM VCSH OVC090
     FM230900 19008KT P6SM SCT090
     FM232000 31008KT P6SM SKC=



000
FTUS45 KLKN 222300
TAFTPH
TAF
KTPH 222320Z 2300/2324 22015G25KT P6SM BKN090
     FM230200 25012KT P6SM FEW090
     FM230500 34008KT P6SM SKC=



000
FTUS45 KLKN 222300
TAFELY
TAF
KELY 222320Z 2300/2324 21015G25KT P6SM VCTS BKN080CB OVC100
      TEMPO 2300/2303 VRB15G40KT 6SM -TSRA BKN050CB
     FM230300 19010KT P6SM VCTS OVC070CB
     FM230500 20009KT P6SM VCSH OVC090
     FM230900 19008KT P6SM SCT090
     FM232000 31008KT P6SM SKC=



000
FTUS45 KLKN 222300
TAFWMC
TAF
KWMC 222320Z 2300/2324 28014G24KT P6SM SCT100
     FM230400 34010G20KT P6SM FEW120
     FM230600 34009KT P6SM SKC=



000
FTUS45 KLKN 222300
TAFEKO
TAF
KEKO 222320Z 2300/2324 26015G25KT P6SM VCTS BKN100CB
      TEMPO 2300/2302 VRB15G40KT -TSRA
     FM230400 VRB05KT P6SM SCT100
     FM232000 27009KT P6SM SKC=



000
FTUS45 KLKN 222300
TAFELY
TAF
KELY 222320Z 2300/2324 21015G25KT P6SM VCTS BKN080CB OVC100
      TEMPO 2300/2303 VRB15G40KT 6SM -TSRA BKN050CB
     FM230300 19010KT P6SM VCTS OVC070CB
     FM230500 20009KT P6SM VCSH OVC090
     FM230900 19008KT P6SM SCT090
     FM232000 31008KT P6SM SKC=



000
FTUS45 KLKN 222300
TAFTPH
TAF
KTPH 222320Z 2300/2324 22015G25KT P6SM BKN090
     FM230200 25012KT P6SM FEW090
     FM230500 34008KT P6SM SKC=



000
FTUS45 KLKN 222300
TAFEKO
TAF
KEKO 222320Z 2300/2324 26015G25KT P6SM VCTS BKN100CB
      TEMPO 2300/2302 VRB15G40KT -TSRA
     FM230400 VRB05KT P6SM SCT100
     FM232000 27009KT P6SM SKC=



000
FTUS45 KLKN 222300
TAFWMC
TAF
KWMC 222320Z 2300/2324 28014G24KT P6SM SCT100
     FM230400 34010G20KT P6SM FEW120
     FM230600 34009KT P6SM SKC=



000
FTUS45 KLKN 222200 AAA
TAFELY
TAF AMD
KELY 222256Z 2223/2318 21016G26KT P6SM VCTS OVC080CB
      TEMPO 2223/2302 VRB15G40KT 5SM -TSRA BKN050CB
     FM230300 19010KT P6SM VCTS OVC070CB
     FM230500 20009KT P6SM -SHRA OVC090
     FM230900 18008KT P6SM VCSH SCT090=



000
FTUS45 KLKN 221700
TAFTPH
TAF
KTPH 221728Z 2218/2318 23015G25KT P6SM SKC
     FM222200 27018G28KT P6SM SKC
     FM230500 35007KT P6SM SKC=



000
FTUS45 KLKN 221700
TAFTPH
TAF
KTPH 221728Z 2218/2318 23015G25KT P6SM SKC
     FM222200 27018G28KT P6SM SKC
     FM230500 35007KT P6SM SKC=



000
FTUS45 KLKN 221700
TAFELY
TAF
KELY 221728Z 2218/2318 21016G26KT P6SM VCTS OVC080CB
      TEMPO 2222/2302 VRB15G40KT 5SM -TSRA
     FM230300 19010KT P6SM VCTS OVC070CB
     FM230500 20009KT P6SM -SHRA OVC090
     FM230900 18008KT P6SM VCSH SCT090=



000
FTUS45 KLKN 221700
TAFEKO
TAF
KEKO 221728Z 2218/2318 26017G27KT P6SM VCTS BKN090CB
      TEMPO 2218/2222 VRB15G35KT -TSRA
     FM230400 31010KT P6SM -SHRA BKN080
     FM230500 VRB06KT P6SM VCSH BKN100=



000
FTUS45 KLKN 221700
TAFWMC
TAF
KWMC 221728Z 2218/2318 27012G22KT P6SM BKN070 BKN090
     FM222100 28015G25KT P6SM VCTS BKN090CB
     FM230300 34010G20KT P6SM BKN100
     FM230600 34009KT P6SM SCT100=



000
FTUS45 KLKN 221700
TAFWMC
TAF
KWMC 221728Z 2218/2318 27012G22KT P6SM BKN070 BKN090
     FM222100 28015G25KT P6SM VCTS BKN090CB
     FM230300 34010G20KT P6SM BKN100
     FM230600 34009KT P6SM SCT100=



000
FTUS45 KLKN 221700
TAFEKO
TAF
KEKO 221728Z 2218/2318 26017G27KT P6SM VCTS BKN090CB
      TEMPO 2218/2222 VRB15G35KT -TSRA
     FM230400 31010KT P6SM -SHRA BKN080
     FM230500 VRB06KT P6SM VCSH BKN100=



000
FTUS45 KLKN 221700
TAFELY
TAF
KELY 221728Z 2218/2318 21016G26KT P6SM VCTS OVC080CB
      TEMPO 2222/2302 VRB15G40KT 5SM -TSRA
     FM230300 19010KT P6SM VCTS OVC070CB
     FM230500 20009KT P6SM -SHRA OVC090
     FM230900 18008KT P6SM VCSH SCT090=



000
FTUS45 KLKN 221100 AAA
TAFEKO
TAF AMD
KEKO 221155Z 2212/2312 08002KT P6SM VCSH BKN100
     FM221800 26015G25KT P6SM VCTS BKN090CB
      TEMPO 2218/2221 VRB20G35KT -TSRA
     FM222100 27018G30KT P6SM VCTS BKN090CB
     FM230000 31010KT P6SM VCSH BKN080
     FM230600 VRB04KT P6SM SKC=



000
FTUS45 KLKN 221100 AAA
TAFEKO
TAF AMD
KEKO 221155Z 2212/2312 08002KT P6SM VCSH BKN100
     FM221800 26015G25KT P6SM VCTS BKN090CB
      TEMPO 2218/2221 VRB20G35KT -TSRA
     FM222100 27018G30KT P6SM VCTS BKN090CB
     FM230000 31010KT P6SM VCSH BKN080
     FM230600 VRB04KT P6SM SKC=



000
FTUS45 KLKN 221100
TAFWMC
TAF
KWMC 221120Z 2212/2312 VRB04KT P6SM BKN090
     FM221800 26015G25KT P6SM BKN080
     FM222100 27015G25KT P6SM VCTS BKN090CB
     FM230000 34010G20KT P6SM BKN100
     FM230600 35009KT P6SM SKC=



000
FTUS45 KLKN 221100
TAFELY
TAF
KELY 221120Z 2212/2312 21014KT P6SM SCT100
     FM221800 20016G26KT P6SM VCTS OVC080CB
      TEMPO 2219/2223 VRB20G40KT 4SM TSRA
     FM230000 20010G20KT P6SM VCTS OVC070CB
     FM230300 20009KT P6SM -SHRA OVC090
     FM230900 18008KT P6SM SKC=



000
FTUS45 KLKN 221100
TAFEKO
TAF
KEKO 221120Z 2212/2312 08002KT P6SM BKN100
     FM221800 26015G25KT P6SM VCTS BKN090CB
      TEMPO 2218/2221 VRB20G35KT -TSRA
     FM222100 27018G30KT P6SM VCTS BKN090CB
     FM230000 31010KT P6SM VCSH BKN080
     FM230600 VRB04KT P6SM SKC=



000
FTUS45 KLKN 221100
TAFELY
TAF
KELY 221120Z 2212/2312 21014KT P6SM SCT100
     FM221800 20016G26KT P6SM VCTS OVC080CB
      TEMPO 2219/2223 VRB20G40KT 4SM TSRA
     FM230000 20010G20KT P6SM VCTS OVC070CB
     FM230300 20009KT P6SM -SHRA OVC090
     FM230900 18008KT P6SM SKC=



000
FTUS45 KLKN 221100
TAFEKO
TAF
KEKO 221120Z 2212/2312 08002KT P6SM BKN100
     FM221800 26015G25KT P6SM VCTS BKN090CB
      TEMPO 2218/2221 VRB20G35KT -TSRA
     FM222100 27018G30KT P6SM VCTS BKN090CB
     FM230000 31010KT P6SM VCSH BKN080
     FM230600 VRB04KT P6SM SKC=



000
FTUS45 KLKN 221100
TAFTPH
TAF
KTPH 221120Z 2212/2312 VRB04KT P6SM SKC
     FM221800 23015G25KT P6SM BKN100
     FM230000 32012G22KT P6SM SCT100
     FM230600 34012KT P6SM SKC=



000
FTUS45 KLKN 221100
TAFWMC
TAF
KWMC 221120Z 2212/2312 VRB04KT P6SM BKN090
     FM221800 26015G25KT P6SM BKN080
     FM222100 27015G25KT P6SM VCTS BKN090CB
     FM230000 34010G20KT P6SM BKN100
     FM230600 35009KT P6SM SKC=



000
FTUS45 KLKN 221100
TAFTPH
TAF
KTPH 221120Z 2212/2312 VRB04KT P6SM SKC
     FM221800 23015G25KT P6SM BKN100
     FM230000 32012G22KT P6SM SCT100
     FM230600 34012KT P6SM SKC=



000
FTUS45 KLKN 220900 AAB
TAFTPH
TAF AMD
KTPH 220923Z 2209/2306 11006KT P6SM SKC
     FM221000 34007KT P6SM SKC
     FM221800 20015G25KT P6SM BKN100
     FM222100 23015G25KT P6SM BKN100=



000
FTUS45 KLKN 220900 AAB
TAFWMC
TAF AMD
KWMC 220923Z 2209/2306 24010KT P6SM SCT100
     FM221800 26015G25KT P6SM BKN080
     FM222100 27015G25KT P6SM VCTS BKN090CB=



000
FTUS45 KLKN 220900 AAA
TAFEKO
TAF AMD
KEKO 220923Z 2209/2306 08002KT P6SM SCT100
     FM221800 26018G28KT P6SM OVC090
     FM222100 26018G28KT P6SM VCTS BKN090CB=



000
FTUS45 KLKN 220900 AAA
TAFELY
TAF AMD
KELY 220923Z 2209/2306 21014KT P6SM SCT100
     FM221800 20016G26KT P6SM VCTS OVC080CB
      TEMPO 2219/2223 VRB20G40KT 4SM TSRA
     FM230000 20010G20KT P6SM VCTS OVC070CB=



000
FTUS45 KLKN 220900 AAA
TAFEKO
TAF AMD
KEKO 220923Z 2209/2306 08002KT P6SM SCT100
     FM221800 26018G28KT P6SM OVC090
     FM222100 26018G28KT P6SM VCTS BKN090CB=



000
FTUS45 KLKN 220900 AAA
TAFELY
TAF AMD
KELY 220923Z 2209/2306 21014KT P6SM SCT100
     FM221800 20016G26KT P6SM VCTS OVC080CB
      TEMPO 2219/2223 VRB20G40KT 4SM TSRA
     FM230000 20010G20KT P6SM VCTS OVC070CB=



000
FTUS45 KLKN 220900 AAB
TAFWMC
TAF AMD
KWMC 220923Z 2209/2306 24010KT P6SM SCT100
     FM221800 26015G25KT P6SM BKN080
     FM222100 27015G25KT P6SM VCTS BKN090CB=



000
FTUS45 KLKN 220900 AAB
TAFTPH
TAF AMD
KTPH 220923Z 2209/2306 11006KT P6SM SKC
     FM221000 34007KT P6SM SKC
     FM221800 20015G25KT P6SM BKN100
     FM222100 23015G25KT P6SM BKN100=



000
FTUS45 KLKN 220800 AAA
TAFTPH
TAF AMD
KTPH 220803Z 2208/2306 20009KT P6SM SCT120
     FM221000 34007KT P6SM SKC
     FM221800 20015G25KT P6SM BKN100
     FM222100 23015G25KT P6SM BKN100=



000
FTUS45 KLKN 220800 AAA
TAFTPH
TAF AMD
KTPH 220803Z 2208/2306 20009KT P6SM SCT120
     FM221000 34007KT P6SM SKC
     FM221800 20015G25KT P6SM BKN100
     FM222100 23015G25KT P6SM BKN100=



000
FTUS45 KLKN 220600 AAA
TAFWMC
TAF AMD
KWMC 220609Z 2206/2306 28006KT P6SM VCSH BKN100
     FM220900 VRB03KT P6SM SCT100
     FM221800 26015G25KT P6SM BKN090
     FM222100 27015G25KT P6SM VCTS BKN090CB=



000
FTUS45 KLKN 220600 AAA
TAFWMC
TAF AMD
KWMC 220609Z 2206/2306 28006KT P6SM VCSH BKN100
     FM220900 VRB03KT P6SM SCT100
     FM221800 26015G25KT P6SM BKN090
     FM222100 27015G25KT P6SM VCTS BKN090CB=



000
FTUS45 KLKN 220500
TAFTPH
TAF
KTPH 220520Z 2206/2306 18010G20KT P6SM SCT120
     FM220900 34007KT P6SM SKC
     FM221800 20015G25KT P6SM BKN100
     FM222100 23015G25KT P6SM BKN100=



000
FTUS45 KLKN 220500
TAFELY
TAF
KELY 220520Z 2206/2306 16012KT P6SM BKN100
     FM221800 20016G26KT P6SM VCTS OVC080CB
      TEMPO 2219/2223 VRB20G40KT 4SM TSRA
     FM230000 20010G20KT P6SM VCTS OVC070CB=



000
FTUS45 KLKN 220500
TAFWMC
TAF
KWMC 220520Z 2206/2306 VRB03KT P6SM BKN100
     FM221800 26015G25KT P6SM BKN090
     FM222100 27015G25KT P6SM VCTS BKN090CB=



000
FTUS45 KLKN 220500
TAFELY
TAF
KELY 220520Z 2206/2306 16012KT P6SM BKN100
     FM221800 20016G26KT P6SM VCTS OVC080CB
      TEMPO 2219/2223 VRB20G40KT 4SM TSRA
     FM230000 20010G20KT P6SM VCTS OVC070CB=



000
FTUS45 KLKN 220500
TAFEKO
TAF
KEKO 220520Z 2206/2306 08002KT P6SM SCT100
     FM220900 VRB03KT P6SM BKN100
     FM221800 26018G28KT P6SM OVC090
     FM222100 26018G28KT P6SM VCTS BKN090CB=



000
FTUS45 KLKN 220500
TAFEKO
TAF
KEKO 220520Z 2206/2306 08002KT P6SM SCT100
     FM220900 VRB03KT P6SM BKN100
     FM221800 26018G28KT P6SM OVC090
     FM222100 26018G28KT P6SM VCTS BKN090CB=



000
FTUS45 KLKN 220500
TAFWMC
TAF
KWMC 220520Z 2206/2306 VRB03KT P6SM BKN100
     FM221800 26015G25KT P6SM BKN090
     FM222100 27015G25KT P6SM VCTS BKN090CB=



000
FTUS45 KLKN 220500
TAFTPH
TAF
KTPH 220520Z 2206/2306 18010G20KT P6SM SCT120
     FM220900 34007KT P6SM SKC
     FM221800 20015G25KT P6SM BKN100
     FM222100 23015G25KT P6SM BKN100=



000
FTUS45 KLKN 220200 AAB
TAFEKO
TAF AMD
KEKO 220224Z 2202/2224 27010KT P6SM BKN100
     FM220300 VRB04KT P6SM SCT100
     FM221900 26015G25KT P6SM VCTS BKN100CB=



000
FTUS45 KLKN 220200 AAB
TAFWMC
TAF AMD
KWMC 220224Z 2202/2224 27012KT P6SM SCT100
     FM220500 26007KT P6SM BKN100
     FM221900 27008KT P6SM SCT100=



000
FTUS45 KLKN 220200 AAB
TAFEKO
TAF AMD
KEKO 220224Z 2202/2224 27010KT P6SM BKN100
     FM220300 VRB04KT P6SM SCT100
     FM221900 26015G25KT P6SM VCTS BKN100CB=



000
FTUS45 KLKN 220200 AAB
TAFWMC
TAF AMD
KWMC 220224Z 2202/2224 27012KT P6SM SCT100
     FM220500 26007KT P6SM BKN100
     FM221900 27008KT P6SM SCT100=



000
FTUS45 KLKN 220100 AAA
TAFELY
TAF AMD
KELY 220113Z 2201/2224 18007KT P6SM BKN100
     FM220300 19010KT P6SM SCT100
     FM221900 20017G27KT P6SM VCTS BKN100CB=



000
FTUS45 KLKN 220100 AAA
TAFEKO
TAF AMD
KEKO 220113Z 2201/2224 27015G25KT P6SM BKN100
     FM220300 VRB04KT P6SM SCT100
     FM221900 26015G25KT P6SM VCTS BKN100CB=



000
FTUS45 KLKN 220100 AAA
TAFELY
TAF AMD
KELY 220113Z 2201/2224 18007KT P6SM BKN100
     FM220300 19010KT P6SM SCT100
     FM221900 20017G27KT P6SM VCTS BKN100CB=



000
FTUS45 KLKN 220100 AAA
TAFTPH
TAF AMD
KTPH 220113Z 2201/2224 00000KT P6SM SKC
     FM220300 VRB05KT P6SM SKC
     FM222000 22015G25KT P6SM FEW100=



000
FTUS45 KLKN 220100 AAA
TAFEKO
TAF AMD
KEKO 220113Z 2201/2224 27015G25KT P6SM BKN100
     FM220300 VRB04KT P6SM SCT100
     FM221900 26015G25KT P6SM VCTS BKN100CB=



000
FTUS45 KLKN 220100 AAA
TAFWMC
TAF AMD
KWMC 220113Z 2201/2224 22009KT P6SM BKN100
     FM220500 26007KT P6SM BKN100
     FM221900 27008KT P6SM SCT100=



000
FTUS45 KLKN 220100 AAA
TAFTPH
TAF AMD
KTPH 220113Z 2201/2224 00000KT P6SM SKC
     FM220300 VRB05KT P6SM SKC
     FM222000 22015G25KT P6SM FEW100=



000
FTUS45 KLKN 220100 AAA
TAFWMC
TAF AMD
KWMC 220113Z 2201/2224 22009KT P6SM BKN100
     FM220500 26007KT P6SM BKN100
     FM221900 27008KT P6SM SCT100=



000
FTUS45 KLKN 212300
TAFELY
TAF
KELY 212320Z 2200/2224 20010G20KT P6SM VCTS SCT100CB
     FM220300 19010KT P6SM SCT100
     FM221900 20017G27KT P6SM VCTS BKN100CB=



000
FTUS45 KLKN 212300
TAFWMC
TAF
KWMC 212320Z 2200/2224 27011G21KT P6SM SCT100
     FM220500 26007KT P6SM BKN100
     FM221900 27008KT P6SM SCT100=



000
FTUS45 KLKN 212300
TAFTPH
TAF
KTPH 212320Z 2200/2224 20012G22KT P6SM FEW100
     FM220300 VRB05KT P6SM SKC
     FM222000 22015G25KT P6SM FEW100=



000
FTUS45 KLKN 212300
TAFWMC
TAF
KWMC 212320Z 2200/2224 27011G21KT P6SM SCT100
     FM220500 26007KT P6SM BKN100
     FM221900 27008KT P6SM SCT100=



000
FTUS45 KLKN 212300
TAFEKO
TAF
KEKO 212320Z 2200/2224 25013G23KT P6SM VCTS BKN100CB
     FM220300 VRB04KT P6SM SCT100
     FM221900 26015G25KT P6SM VCTS BKN100CB=



000
FTUS45 KLKN 212300
TAFEKO
TAF
KEKO 212320Z 2200/2224 25013G23KT P6SM VCTS BKN100CB
     FM220300 VRB04KT P6SM SCT100
     FM221900 26015G25KT P6SM VCTS BKN100CB=



000
FTUS45 KLKN 212300
TAFTPH
TAF
KTPH 212320Z 2200/2224 20012G22KT P6SM FEW100
     FM220300 VRB05KT P6SM SKC
     FM222000 22015G25KT P6SM FEW100=



000
FTUS45 KLKN 212300
TAFELY
TAF
KELY 212320Z 2200/2224 20010G20KT P6SM VCTS SCT100CB
     FM220300 19010KT P6SM SCT100
     FM221900 20017G27KT P6SM VCTS BKN100CB=



000
FTUS45 KLKN 211700
TAFELY
TAF
KELY 211720Z 2118/2218 20010KT P6SM SCT100
     FM212000 20010G20KT P6SM VCTS SCT100CB
     FM220300 19010KT P6SM SCT100
     FM221700 20017G27KT P6SM VCTS BKN100CB=



000
FTUS45 KLKN 211700
TAFWMC
TAF
KWMC 211720Z 2118/2218 28007KT P6SM SCT100
     FM211930 27011G21KT P6SM SCT100
     FM220500 26007KT P6SM BKN100
     FM221700 27008KT P6SM SCT100=



000
FTUS45 KLKN 211700
TAFTPH
TAF
KTPH 211720Z 2118/2218 36005KT P6SM SKC
     FM212000 20012G22KT P6SM FEW100
     FM220300 VRB05KT P6SM SKC
     FM221700 22015G25KT P6SM FEW100=



000
FTUS45 KLKN 211700
TAFEKO
TAF
KEKO 211720Z 2118/2218 VRB06KT P6SM VCSH BKN100
     FM212000 25013G23KT P6SM VCTS BKN100CB
     FM220300 VRB04KT P6SM SCT100
     FM221700 26015G25KT P6SM VCTS BKN100CB=



000
FTUS45 KLKN 211100
TAFELY
TAF
KELY 211120Z 2112/2212 20010KT P6SM SCT100
     FM212000 20010G20KT P6SM VCTS SCT100CB
     FM220300 19010KT P6SM SCT100=



000
FTUS45 KLKN 211100
TAFTPH
TAF
KTPH 211120Z 2112/2212 36005KT P6SM SKC
     FM212000 20012G22KT P6SM FEW100
     FM220300 VRB05KT P6SM SKC=



000
FTUS45 KLKN 211100
TAFEKO
TAF
KEKO 211120Z 2112/2212 VRB06KT P6SM VCSH BKN100
     FM212000 24013G23KT P6SM VCTS BKN100CB
     FM220300 VRB04KT P6SM SCT100=



000
FTUS45 KLKN 211100
TAFEKO
TAF
KEKO 211120Z 2112/2212 VRB06KT P6SM VCSH BKN100
     FM212000 24013G23KT P6SM VCTS BKN100CB
     FM220300 VRB04KT P6SM SCT100=



000
FTUS45 KLKN 211100
TAFWMC
TAF
KWMC 211120Z 2112/2212 VRB06KT P6SM SCT100
     FM211900 27011G21KT P6SM SCT100
     FM220500 26007KT P6SM BKN100=



000
FTUS45 KLKN 211100
TAFELY
TAF
KELY 211120Z 2112/2212 20010KT P6SM SCT100
     FM212000 20010G20KT P6SM VCTS SCT100CB
     FM220300 19010KT P6SM SCT100=



000
FTUS45 KLKN 211100
TAFWMC
TAF
KWMC 211120Z 2112/2212 VRB06KT P6SM SCT100
     FM211900 27011G21KT P6SM SCT100
     FM220500 26007KT P6SM BKN100=



000
FTUS45 KLKN 211100
TAFTPH
TAF
KTPH 211120Z 2112/2212 36005KT P6SM SKC
     FM212000 20012G22KT P6SM FEW100
     FM220300 VRB05KT P6SM SKC=



000
FTUS45 KLKN 210500
TAFEKO
TAF
KEKO 210520Z 2106/2206 VRB06KT P6SM BKN100
     FM211900 24013G23KT P6SM SCT100=



000
FTUS45 KLKN 210500
TAFWMC
TAF
KWMC 210520Z 2106/2206 29010KT P6SM SCT100
     FM211900 24012G20KT P6SM FEW100=



000
FTUS45 KLKN 210500
TAFTPH
TAF
KTPH 210520Z 2106/2206 36008KT P6SM FEW100
     FM212000 20013G23KT P6SM FEW100=



000
FTUS45 KLKN 210500
TAFELY
TAF
KELY 210520Z 2106/2206 18008KT P6SM BKN100
     FM212000 20010G20KT P6SM VCTS SCT100CB=



000
FTUS45 KLKN 210500
TAFWMC
TAF
KWMC 210520Z 2106/2206 29010KT P6SM SCT100
     FM211900 24012G20KT P6SM FEW100=



000
FTUS45 KLKN 210500
TAFEKO
TAF
KEKO 210520Z 2106/2206 VRB06KT P6SM BKN100
     FM211900 24013G23KT P6SM SCT100=



000
FTUS45 KLKN 210500
TAFELY
TAF
KELY 210520Z 2106/2206 18008KT P6SM BKN100
     FM212000 20010G20KT P6SM VCTS SCT100CB=



000
FTUS45 KLKN 210500
TAFTPH
TAF
KTPH 210520Z 2106/2206 36008KT P6SM FEW100
     FM212000 20013G23KT P6SM FEW100=



000
FTUS45 KLKN 210000 AAA
TAFELY
TAF AMD
KELY 210032Z 2101/2124 21021G27KT P6SM VCTS SCT080 SCT100CB
     FM210200 18009KT P6SM BKN100
     FM212000 20010G20KT P6SM VCTS SCT100CB=



000
FTUS45 KLKN 210000 AAB
TAFEKO
TAF AMD
KEKO 210032Z 2101/2124 17014G22KT P6SM VCSH BKN110
     FM210200 VRB06KT P6SM BKN100
     FM211900 24013G23KT P6SM SCT100=



000
FTUS45 KLKN 210000 AAA
TAFELY
TAF AMD
KELY 210032Z 2101/2124 21021G27KT P6SM VCTS SCT080 SCT100CB
     FM210200 18009KT P6SM BKN100
     FM212000 20010G20KT P6SM VCTS SCT100CB=



000
FTUS45 KLKN 210000 AAB
TAFEKO
TAF AMD
KEKO 210032Z 2101/2124 17014G22KT P6SM VCSH BKN110
     FM210200 VRB06KT P6SM BKN100
     FM211900 24013G23KT P6SM SCT100=



000
FTUS45 KLKN 202300 AAA
TAFEKO
TAF AMD
KEKO 202352Z 2100/2124 25012G22KT P6SM VCTS BKN100CB
      TEMPO 2100/2102 23020G40KT P6SM -SHRA BKN100
     FM210200 VRB06KT P6SM BKN100
     FM211900 24013G23KT P6SM SCT100=



000
FTUS45 KLKN 202300 AAA
TAFEKO
TAF AMD
KEKO 202352Z 2100/2124 25012G22KT P6SM VCTS BKN100CB
      TEMPO 2100/2102 23020G40KT P6SM -SHRA BKN100
     FM210200 VRB06KT P6SM BKN100
     FM211900 24013G23KT P6SM SCT100=



000
FTUS45 KLKN 202300
TAFTPH
TAF
KTPH 202320Z 2100/2124 19013G23KT P6SM SCT100
     FM210100 36009KT P6SM FEW100
     FM212000 20013G23KT P6SM FEW100=



000
FTUS45 KLKN 202300
TAFTPH
TAF
KTPH 202320Z 2100/2124 19013G23KT P6SM SCT100
     FM210100 36009KT P6SM FEW100
     FM212000 20013G23KT P6SM FEW100=



000
FTUS45 KLKN 202300
TAFWMC
TAF
KWMC 202320Z 2100/2124 27013G22KT P6SM VCTS FEW100CB
     FM210100 29010KT P6SM SCT100
     FM211900 24012G20KT P6SM FEW100=



000
FTUS45 KLKN 202300
TAFWMC
TAF
KWMC 202320Z 2100/2124 27013G22KT P6SM VCTS FEW100CB
     FM210100 29010KT P6SM SCT100
     FM211900 24012G20KT P6SM FEW100=



000
FTUS45 KLKN 202300
TAFEKO
TAF
KEKO 202320Z 2100/2124 25012G22KT P6SM VCTS BKN100CB
     FM210200 VRB06KT P6SM BKN100
     FM211900 24013G23KT P6SM SCT100=



000
FTUS45 KLKN 202300
TAFELY
TAF
KELY 202320Z 2100/2124 19012KT P6SM VCTS BKN100CB
     FM210200 18009KT P6SM BKN100
     FM212000 20010G20KT P6SM VCTS SCT100CB=



000
FTUS45 KLKN 202300
TAFEKO
TAF
KEKO 202320Z 2100/2124 25012G22KT P6SM VCTS BKN100CB
     FM210200 VRB06KT P6SM BKN100
     FM211900 24013G23KT P6SM SCT100=



000
FTUS45 KLKN 202300
TAFELY
TAF
KELY 202320Z 2100/2124 19012KT P6SM VCTS BKN100CB
     FM210200 18009KT P6SM BKN100
     FM212000 20010G20KT P6SM VCTS SCT100CB=



000
FTUS45 KLKN 202100 AAA
TAFEKO
TAF AMD
KEKO 202111Z 2021/2118 25012G22KT P6SM VCTS BKN100CB
      TEMPO 2021/2024 VRB20G35KT -TSRA
     FM210200 VRB06KT P6SM BKN100
     FM211700 24013G23KT P6SM SCT100=



000
FTUS45 KLKN 202100 AAA
TAFEKO
TAF AMD
KEKO 202111Z 2021/2118 25012G22KT P6SM VCTS BKN100CB
      TEMPO 2021/2024 VRB20G35KT -TSRA
     FM210200 VRB06KT P6SM BKN100
     FM211700 24013G23KT P6SM SCT100=



    US Dept of Commerce
    National Oceanic and Atmospheric Administration
    National Weather Service
    1325 East West Highway
    Silver Spring, MD 20910
    Page Author: NWS Internet Services Team
Disclaimer
Information Quality
Credits
Glossary
Privacy Policy
Freedom of Information Act (FOIA)
About Us
Career Opportunities